createdAt,value
2022-10-15T00:00:08.300Z,100043.16
2022-10-15T00:02:34.702Z,100042.31
2022-10-15T00:05:01.855Z,100041.06
2022-10-15T00:07:29.157Z,100043.56
2022-10-15T00:09:55.526Z,100042.75
2022-10-15T00:12:21.873Z,100033.56
2022-10-15T00:14:48.274Z,100024.41
2022-10-15T00:17:14.623Z,100020.81
2022-10-15T00:19:40.954Z,100025.22
2022-10-15T00:22:07.391Z,100028.75
2022-10-15T00:24:33.823Z,100028.94
2022-10-15T00:27:00.225Z,100022.72
2022-10-15T00:29:26.700Z,100021.06
2022-10-15T00:31:53.079Z,100020.44
2022-10-15T00:34:20.063Z,100026.91
2022-10-15T00:36:46.400Z,100030.66
2022-10-15T00:39:12.734Z,100035.25
2022-10-15T00:41:44.042Z,100042.31
2022-10-15T00:44:22.402Z,100031.47
2022-10-15T00:46:53.802Z,100038.78
2022-10-15T00:49:24.526Z,100031.72
2022-10-15T00:51:57.479Z,100042.53
2022-10-15T00:54:27.594Z,100039.22
2022-10-15T00:56:55.124Z,100040.28
2022-10-15T00:59:25.476Z,100041.09
2022-10-15T01:01:52.627Z,100045.69
2022-10-15T01:04:19.338Z,100044.84
2022-10-15T01:06:46.218Z,100038.59
2022-10-15T01:09:13.387Z,100034.00
2022-10-15T01:11:43.054Z,100040.28
2022-10-15T01:14:45.275Z,100038.16
2022-10-15T01:17:23.882Z,100033.78
2022-10-15T01:20:12.360Z,100035.44
2022-10-15T01:23:04.715Z,100043.56
2022-10-15T01:25:57.093Z,100037.97
2022-10-15T01:28:48.730Z,100024.63
2022-10-15T01:31:40.227Z,100027.31
2022-10-15T01:34:32.697Z,100025.66
2022-10-15T01:37:09.719Z,100031.09
2022-10-15T01:39:51.030Z,100023.41
2022-10-15T01:42:34.543Z,100019.03
2022-10-15T01:45:07.567Z,100020.06
2022-10-15T01:47:37.878Z,100016.94
2022-10-15T01:50:06.362Z,100019.84
2022-10-15T01:52:38.740Z,100018.19
2022-10-15T01:55:16.259Z,100014.66
2022-10-15T01:57:45.051Z,100018.63
2022-10-15T02:00:12.251Z,100026.94
2022-10-15T02:02:38.579Z,100019.88
2022-10-15T02:05:15.275Z,100015.28
2022-10-15T02:07:53.861Z,100017.19
2022-10-15T02:10:58.929Z,100006.53
2022-10-15T02:13:43.726Z,100002.78
2022-10-15T02:16:27.536Z,100011.97
2022-10-15T02:18:56.631Z,100006.75
2022-10-15T02:21:42.907Z,100004.28
2022-10-15T02:24:21.470Z,100007.19
2022-10-15T02:26:51.415Z,100008.44
2022-10-15T02:29:21.281Z,100001.38
2022-10-15T02:31:49.960Z,99995.34
2022-10-15T02:34:22.635Z,99993.69
2022-10-15T02:36:49.651Z,99997.66
2022-10-15T02:39:21.701Z,99999.53
2022-10-15T02:41:48.997Z,99994.50
2022-10-15T02:44:15.362Z,99994.50
2022-10-15T02:46:41.739Z,100003.69
2022-10-15T02:49:08.351Z,100004.75
2022-10-15T02:51:35.905Z,100010.16
2022-10-15T02:54:04.390Z,99999.53
2022-10-15T02:56:31.370Z,99998.72
2022-10-15T02:58:57.774Z,100000.78
2022-10-15T03:01:24.254Z,100001.84
2022-10-15T03:03:50.775Z,100000.16
2022-10-15T03:06:17.146Z,100000.41
2022-10-15T03:08:44.320Z,100009.78
2022-10-15T03:11:11.658Z,99996.25
2022-10-15T03:13:39.528Z,99998.31
2022-10-15T03:16:10.395Z,99996.88
2022-10-15T03:18:40.451Z,100002.47
2022-10-15T03:21:07.338Z,99996.47
2022-10-15T03:26:05.128Z,99994.78
2022-10-15T03:28:31.527Z,99998.56
2022-10-15T03:30:57.935Z,99996.66
2022-10-15T03:33:25.228Z,100001.25
2022-10-15T03:35:53.038Z,99998.56
2022-10-15T03:38:20.003Z,99998.56
2022-10-15T03:40:46.998Z,99997.09
2022-10-15T03:43:13.378Z,99988.97
2022-10-15T03:45:39.709Z,100000.00
2022-10-15T03:48:06.592Z,99989.41
2022-10-15T03:50:33.124Z,99987.97
2022-10-15T03:52:59.472Z,99990.84
2022-10-15T03:55:26.010Z,99991.91
2022-10-15T03:57:52.346Z,99993.78
2022-10-15T04:00:18.877Z,99992.13
2022-10-15T04:02:45.246Z,99989.63
2022-10-15T04:05:11.578Z,99989.84
2022-10-15T04:07:37.958Z,99986.31
2022-10-15T04:10:04.424Z,99986.50
2022-10-15T04:12:30.864Z,99975.09
2022-10-15T04:14:57.277Z,99979.03
2022-10-15T04:17:23.737Z,99976.72
2022-10-15T04:19:50.211Z,99986.09
2022-10-15T04:22:16.599Z,99986.31
2022-10-15T04:24:42.941Z,99979.47
2022-10-15T04:27:09.333Z,99980.47
2022-10-15T04:29:35.731Z,99973.41
2022-10-15T04:32:02.043Z,99979.03
2022-10-15T04:34:28.401Z,99975.72
2022-10-15T04:36:54.788Z,99980.50
2022-10-15T04:39:21.396Z,99981.34
2022-10-15T04:41:47.863Z,99981.75
2022-10-15T04:44:14.411Z,99980.09
2022-10-15T04:46:40.822Z,99976.78
2022-10-15T04:49:07.301Z,99976.97
2022-10-15T04:51:33.636Z,99977.78
2022-10-15T04:54:01.652Z,99968.03
2022-10-15T04:56:28.979Z,99974.25
2022-10-15T04:58:55.666Z,99977.19
2022-10-15T05:01:22.859Z,99972.63
2022-10-15T05:03:49.607Z,99982.59
2022-10-15T05:06:19.950Z,99984.44
2022-10-15T05:08:47.265Z,99986.56
2022-10-15T05:11:25.219Z,99990.28
2022-10-15T05:13:52.616Z,99990.50
2022-10-15T05:16:21.809Z,99990.72
2022-10-15T05:18:50.670Z,99994.63
2022-10-15T05:21:18.794Z,100006.50
2022-10-15T05:23:45.552Z,99995.03
2022-10-15T05:26:17.159Z,99992.53
2022-10-15T05:28:43.707Z,99990.88
2022-10-15T05:31:18.759Z,99995.47
2022-10-15T05:33:47.405Z,99994.66
2022-10-15T05:36:24.409Z,99993.78
2022-10-15T05:38:56.599Z,99997.53
2022-10-15T05:41:23.676Z,99993.19
2022-10-15T05:43:51.346Z,99998.59
2022-10-15T05:46:18.667Z,99996.91
2022-10-15T05:48:49.922Z,99997.72
2022-10-15T05:51:16.702Z,99996.91
2022-10-15T05:53:43.664Z,99997.97
2022-10-15T05:56:10.266Z,99999.84
2022-10-15T05:58:37.619Z,100002.53
2022-10-15T06:01:08.512Z,100002.31
2022-10-15T06:03:35.260Z,100003.38
2022-10-15T06:06:01.968Z,100002.53
2022-10-15T06:08:29.830Z,99995.44
2022-10-15T06:11:05.222Z,100002.53
2022-10-15T06:13:34.829Z,100016.88
2022-10-15T06:16:03.897Z,100015.00
2022-10-15T06:18:30.261Z,100022.28
2022-10-15T06:20:56.580Z,100020.41
2022-10-15T06:23:24.300Z,100014.81
2022-10-15T06:25:51.250Z,100019.38
2022-10-15T06:28:17.998Z,100014.81
2022-10-15T06:30:44.663Z,100021.88
2022-10-15T06:35:42.534Z,100023.53
2022-10-15T06:38:09.055Z,100019.81
2022-10-15T06:40:35.401Z,100025.00
2022-10-15T06:43:07.836Z,100020.44
2022-10-15T06:45:38.768Z,100021.91
2022-10-15T06:48:06.818Z,100022.72
2022-10-15T06:50:34.907Z,100030.44
2022-10-15T06:53:01.341Z,100030.25
2022-10-15T06:55:28.967Z,100032.72
2022-10-15T06:57:56.338Z,100030.66
2022-10-15T07:00:24.040Z,100034.81
2022-10-15T07:02:51.548Z,100033.75
2022-10-15T07:05:19.222Z,100029.81
2022-10-15T07:07:56.283Z,100026.69
2022-10-15T07:10:23.953Z,100027.31
2022-10-15T07:12:50.311Z,100023.38
2022-10-15T07:15:17.275Z,100022.94
2022-10-15T07:18:01.213Z,100027.72
2022-10-15T07:20:29.610Z,100035.44
2022-10-15T07:22:58.530Z,100032.53
2022-10-15T07:25:26.743Z,100044.81
2022-10-15T07:27:55.222Z,100046.25
2022-10-15T07:30:22.678Z,100044.16
2022-10-15T07:32:50.287Z,100052.06
2022-10-15T07:35:16.907Z,100040.00
2022-10-15T07:37:43.236Z,100044.97
2022-10-15T07:40:10.163Z,100047.50
2022-10-15T07:42:36.639Z,100040.00
2022-10-15T07:45:03.360Z,100043.31
2022-10-15T07:47:29.748Z,100042.06
2022-10-15T07:49:56.975Z,100032.69
2022-10-15T07:52:23.516Z,100030.41
2022-10-15T07:54:50.194Z,100028.28
2022-10-15T07:57:17.638Z,100031.44
2022-10-15T07:59:44.211Z,100039.13
2022-10-15T08:02:17.995Z,100033.91
2022-10-15T08:04:44.720Z,100037.00
2022-10-15T08:07:11.056Z,100041.16
2022-10-15T08:09:37.475Z,100044.31
2022-10-15T08:12:06.184Z,100047.41
2022-10-15T08:14:33.886Z,100040.31
2022-10-15T08:17:01.629Z,100032.56
2022-10-15T08:19:28.008Z,100027.78
2022-10-15T08:21:54.499Z,100029.84
2022-10-15T08:24:21.091Z,100033.59
2022-10-15T08:26:47.449Z,100036.50
2022-10-15T08:29:14.134Z,100028.56
2022-10-15T08:31:40.468Z,100039.38
2022-10-15T08:34:07.438Z,100034.75
2022-10-15T08:36:34.534Z,100028.88
2022-10-15T08:39:00.968Z,100037.81
2022-10-15T08:41:45.393Z,100030.03
2022-10-15T08:44:38.273Z,100020.38
2022-10-15T08:47:19.698Z,100025.72
2022-10-15T08:49:51.858Z,100026.53
2022-10-15T08:52:28.833Z,100029.41
2022-10-15T08:54:56.441Z,100026.44
2022-10-15T08:57:28.790Z,100024.59
2022-10-15T09:00:10.697Z,100030.59
2022-10-15T09:03:02.992Z,100032.28
2022-10-15T09:05:52.869Z,100031.22
2022-10-15T09:08:30.339Z,100036.44
2022-10-15T09:11:15.227Z,100028.06
2022-10-15T09:13:44.301Z,100025.16
2022-10-15T09:16:33.056Z,100021.78
2022-10-15T09:19:04.657Z,100023.00
2022-10-15T09:21:32.865Z,100022.56
2022-10-15T09:24:02.285Z,100016.28
2022-10-15T09:26:53.790Z,100017.25
2022-10-15T09:29:36.868Z,100009.66
2022-10-15T09:32:08.998Z,100014.78
2022-10-15T09:34:54.343Z,100009.06
2022-10-15T09:38:01.095Z,100010.00
2022-10-15T09:40:52.528Z,100006.31
2022-10-15T09:43:34.783Z,100005.56
2022-10-15T09:46:02.479Z,100007.13
2022-10-15T09:48:33.543Z,99995.75
2022-10-15T09:51:23.179Z,100005.25
2022-10-15T09:54:00.776Z,100016.06
2022-10-15T09:56:35.436Z,100010.75
2022-10-15T09:59:03.670Z,100010.31
2022-10-15T10:01:33.472Z,100001.31
2022-10-15T10:04:17.603Z,99998.00
2022-10-15T10:06:53.754Z,100002.47
2022-10-15T10:09:24.076Z,99993.56
2022-10-15T10:11:54.161Z,99991.75
2022-10-15T10:14:25.426Z,99994.91
2022-10-15T10:17:21.562Z,100001.25
2022-10-15T10:20:10.080Z,99984.31
2022-10-15T10:22:54.650Z,99988.72
2022-10-15T10:25:27.104Z,99969.84
2022-10-15T10:27:55.281Z,99976.47
2022-10-15T10:30:22.005Z,99975.59
2022-10-15T10:32:54.231Z,99958.97
2022-10-15T10:35:23.747Z,99958.88
2022-10-15T10:37:50.973Z,99975.09
2022-10-15T10:40:23.226Z,99962.25
2022-10-15T10:43:11.240Z,99964.63
2022-10-15T10:45:37.856Z,99953.91
2022-10-15T10:48:21.956Z,99959.00
2022-10-15T10:50:48.672Z,99951.53
2022-10-15T10:53:23.328Z,99940.34
2022-10-15T10:55:51.840Z,99951.09
2022-10-15T10:58:24.858Z,99942.38
2022-10-15T11:00:55.349Z,99939.91
2022-10-15T11:03:40.033Z,99946.16
2022-10-15T11:06:12.076Z,99935.50
2022-10-15T11:08:53.390Z,99928.41
2022-10-15T11:12:01.614Z,99926.72
2022-10-15T11:14:49.408Z,99922.56
2022-10-15T11:17:27.905Z,99903.72
2022-10-15T11:20:26.239Z,99901.44
2022-10-15T11:23:28.267Z,99894.09
2022-10-15T11:26:15.927Z,99897.72
2022-10-15T11:28:59.519Z,99891.06
2022-10-15T11:32:01.720Z,99886.75
2022-10-15T11:34:44.331Z,99891.75
2022-10-15T11:37:13.345Z,99890.41
2022-10-15T11:40:01.923Z,99886.63
2022-10-15T11:42:43.791Z,99889.09
2022-10-15T11:45:16.242Z,99889.94
2022-10-15T11:48:00.004Z,99891.09
2022-10-15T11:50:45.599Z,99884.59
2022-10-15T11:53:40.259Z,99889.28
2022-10-15T11:56:11.525Z,99864.50
2022-10-15T11:58:46.757Z,99864.31
2022-10-15T12:01:23.250Z,99859.31
2022-10-15T12:03:56.876Z,99846.91
2022-10-15T12:06:28.415Z,99838.88
2022-10-15T12:08:57.327Z,99845.00
2022-10-15T12:11:31.255Z,99844.59
2022-10-15T12:14:20.271Z,99844.38
2022-10-15T12:17:04.057Z,99838.66
2022-10-15T12:19:47.931Z,99842.97
2022-10-15T12:22:50.828Z,99843.19
2022-10-15T12:25:35.463Z,99843.09
2022-10-15T12:28:04.898Z,99844.34
2022-10-15T12:30:34.429Z,99841.78
2022-10-15T12:33:02.443Z,99837.59
2022-10-15T12:35:36.114Z,99843.19
2022-10-15T12:38:11.708Z,99839.78
2022-10-15T12:40:39.738Z,99830.97
2022-10-15T12:43:15.840Z,99829.47
2022-10-15T12:45:54.174Z,99836.97
2022-10-15T12:48:40.870Z,99834.16
2022-10-15T12:51:16.550Z,99843.31
2022-10-15T12:53:44.583Z,99833.38
2022-10-15T12:56:12.462Z,99828.69
2022-10-15T12:58:40.881Z,99831.63
2022-10-15T13:01:16.070Z,99825.56
2022-10-15T13:03:56.022Z,99829.38
2022-10-15T13:06:23.840Z,99826.06
2022-10-15T13:09:11.933Z,99823.59
2022-10-15T13:11:41.628Z,99824.31
2022-10-15T13:14:31.686Z,99826.47
2022-10-15T13:17:00.827Z,99821.72
2022-10-15T13:19:31.960Z,99823.31
2022-10-15T13:22:01.266Z,99819.66
2022-10-15T13:24:30.411Z,99817.41
2022-10-15T13:26:59.941Z,99818.75
2022-10-15T13:29:28.036Z,99814.34
2022-10-15T13:31:56.720Z,99810.81
2022-10-15T13:34:36.451Z,99804.53
2022-10-15T13:37:04.598Z,99811.03
2022-10-15T13:39:35.207Z,99817.06
2022-10-15T13:42:16.269Z,99808.91
2022-10-15T13:44:44.508Z,99808.06
2022-10-15T13:47:35.262Z,99821.69
2022-10-15T13:50:17.761Z,99814.59
2022-10-15T13:52:48.708Z,99817.78
2022-10-15T13:55:29.989Z,99814.50
2022-10-15T13:58:03.061Z,99818.28
2022-10-15T14:00:33.541Z,99812.50
2022-10-15T14:03:22.207Z,99818.44
2022-10-15T14:05:51.686Z,99811.56
2022-10-15T14:08:32.688Z,99816.44
2022-10-15T14:10:59.787Z,99811.69
2022-10-15T14:13:27.383Z,99820.13
2022-10-15T14:16:00.570Z,99810.28
2022-10-15T14:18:36.374Z,99811.38
2022-10-15T14:21:09.627Z,99811.38
2022-10-15T14:23:35.958Z,99815.50
2022-10-15T14:26:03.618Z,99822.84
2022-10-15T14:28:32.727Z,99829.72
2022-10-15T14:31:01.083Z,99822.09
2022-10-15T14:33:36.531Z,99816.44
2022-10-15T14:36:04.459Z,99817.50
2022-10-15T14:38:31.687Z,99822.09
2022-10-15T14:41:04.788Z,99819.38
2022-10-15T14:43:37.225Z,99827.53
2022-10-15T14:46:11.554Z,99829.22
2022-10-15T14:48:40.541Z,99828.41
2022-10-15T14:51:12.676Z,99825.69
2022-10-15T14:53:45.667Z,99830.03
2022-10-15T14:56:20.776Z,99826.25
2022-10-15T14:58:52.190Z,99823.28
2022-10-15T15:01:20.750Z,99828.25
2022-10-15T15:03:50.613Z,99818.75
2022-10-15T15:06:17.233Z,99822.09
2022-10-15T15:08:43.810Z,99826.22
2022-10-15T15:11:17.963Z,99833.66
2022-10-15T15:13:45.447Z,99834.22
2022-10-15T15:16:14.113Z,99843.81
2022-10-15T15:18:43.684Z,99843.81
2022-10-15T15:21:15.406Z,99843.00
2022-10-15T15:23:42.906Z,99852.25
2022-10-15T15:26:09.270Z,99845.13
2022-10-15T15:28:35.781Z,99843.47
2022-10-15T15:31:12.504Z,99840.75
2022-10-15T15:33:38.873Z,99833.66
2022-10-15T15:36:17.557Z,99842.41
2022-10-15T15:38:47.145Z,99844.56
2022-10-15T15:41:18.906Z,99847.28
2022-10-15T15:43:46.870Z,99842.88
2022-10-15T15:46:14.143Z,99841.84
2022-10-15T15:48:40.797Z,99836.84
2022-10-15T15:51:20.917Z,99832.25
2022-10-15T15:53:48.161Z,99830.84
2022-10-15T15:56:14.677Z,99831.91
2022-10-15T15:58:41.034Z,99841.97
2022-10-15T16:01:07.440Z,99843.28
2022-10-15T16:03:33.768Z,99841.63
2022-10-15T16:06:00.126Z,99846.47
2022-10-15T16:08:26.475Z,99860.09
2022-10-15T16:10:52.808Z,99844.25
2022-10-15T16:13:19.118Z,99848.03
2022-10-15T16:15:45.482Z,99851.22
2022-10-15T16:18:12.150Z,99858.56
2022-10-15T16:20:40.684Z,99848.16
2022-10-15T16:23:09.109Z,99851.94
2022-10-15T16:25:35.434Z,99861.41
2022-10-15T16:28:02.049Z,99853.50
2022-10-15T16:30:28.735Z,99852.91
2022-10-15T16:32:55.318Z,99861.31
2022-10-15T16:35:21.763Z,99860.75
2022-10-15T16:37:48.193Z,99866.41
2022-10-15T16:40:15.678Z,99871.25
2022-10-15T16:42:42.028Z,99868.78
2022-10-15T16:45:10.254Z,99875.53
2022-10-15T16:47:36.647Z,99874.72
2022-10-15T16:50:03.613Z,99883.94
2022-10-15T16:52:29.978Z,99875.75
2022-10-15T16:54:56.311Z,99878.75
2022-10-15T16:57:22.639Z,99878.75
2022-10-15T16:59:49.014Z,99889.84
2022-10-15T17:02:15.363Z,99892.56
2022-10-15T17:04:41.715Z,99905.34
2022-10-15T17:07:08.177Z,99907.25
2022-10-15T17:09:34.726Z,99917.53
2022-10-15T17:12:01.738Z,99925.38
2022-10-15T17:14:28.089Z,99910.75
2022-10-15T17:16:54.506Z,99926.72
2022-10-15T17:19:23.630Z,99933.69
2022-10-15T17:21:50.393Z,99943.63
2022-10-15T17:24:18.416Z,99959.81
2022-10-15T17:26:46.135Z,99965.13
2022-10-15T17:29:20.652Z,99970.22
2022-10-15T17:31:48.493Z,99981.44
2022-10-15T17:34:16.060Z,99985.91
2022-10-15T17:36:47.026Z,99987.44
2022-10-15T17:39:16.098Z,99986.25
2022-10-15T17:41:42.745Z,99995.31
2022-10-15T17:44:11.132Z,100001.22
2022-10-15T17:46:37.781Z,100009.22
2022-10-15T17:49:04.394Z,100019.75
2022-10-15T17:51:32.526Z,100018.53
2022-10-15T17:54:00.479Z,100022.78
2022-10-15T17:56:29.971Z,100027.81
2022-10-15T17:58:57.304Z,100027.44
2022-10-15T18:01:39.289Z,100025.19
2022-10-15T18:04:13.728Z,100044.66
2022-10-15T18:06:44.046Z,100053.00
2022-10-15T18:09:10.495Z,100066.00
2022-10-15T18:11:36.923Z,100071.88
2022-10-15T18:14:03.947Z,100082.75
2022-10-15T18:16:30.438Z,100083.81
2022-10-15T18:18:56.892Z,100079.22
2022-10-15T18:21:25.239Z,100084.84
2022-10-15T18:23:51.804Z,100084.03
2022-10-15T18:26:21.615Z,100094.06
2022-10-15T18:28:52.975Z,100097.84
2022-10-15T18:31:19.933Z,100098.31
2022-10-15T18:33:48.890Z,100105.22
2022-10-15T18:36:24.857Z,100104.00
2022-10-15T18:38:51.153Z,100117.84
2022-10-15T18:41:29.036Z,100123.09
2022-10-15T18:43:57.875Z,100128.22
2022-10-15T18:46:25.032Z,100128.69
2022-10-15T18:48:51.455Z,100131.69
2022-10-15T18:51:17.948Z,100143.66
2022-10-15T18:53:44.325Z,100149.59
2022-10-15T18:56:13.723Z,100147.97
2022-10-15T18:58:42.865Z,100161.56
2022-10-15T19:01:11.467Z,100167.03
2022-10-15T19:03:37.923Z,100161.63
2022-10-15T19:06:04.468Z,100152.69
2022-10-15T19:08:31.044Z,100162.53
2022-10-15T19:11:08.503Z,100167.75
2022-10-15T19:13:36.498Z,100178.66
2022-10-15T19:16:04.143Z,100177.63
2022-10-15T19:18:31.921Z,100187.44
2022-10-15T19:20:58.935Z,100177.47
2022-10-15T19:23:25.390Z,100177.91
2022-10-15T19:25:52.152Z,100185.22
2022-10-15T19:28:18.735Z,100170.44
2022-10-15T19:30:53.918Z,100170.00
2022-10-15T19:33:20.396Z,100172.53
2022-10-15T19:35:46.830Z,100169.63
2022-10-15T19:38:13.227Z,100176.31
2022-10-15T19:40:43.726Z,100163.19
2022-10-15T19:43:13.739Z,100173.63
2022-10-15T19:45:45.210Z,100164.88
2022-10-15T19:48:13.745Z,100164.47
2022-10-15T19:50:42.608Z,100162.78
2022-10-15T19:53:11.483Z,100174.03
2022-10-15T19:55:39.386Z,100181.78
2022-10-15T19:58:06.723Z,100190.28
2022-10-15T20:00:33.064Z,100190.72
2022-10-15T20:02:59.705Z,100188.41
2022-10-15T20:05:26.235Z,100188.81
2022-10-15T20:07:52.823Z,100191.13
2022-10-15T20:10:23.573Z,100195.09
2022-10-15T20:12:52.183Z,100201.75
2022-10-15T20:15:18.648Z,100197.41
2022-10-15T20:17:45.088Z,100205.31
2022-10-15T20:20:11.417Z,100200.28
2022-10-15T20:22:37.744Z,100206.13
2022-10-15T20:25:04.420Z,100215.72
2022-10-15T20:27:30.792Z,100217.16
2022-10-15T20:29:57.155Z,100214.88
2022-10-15T20:32:34.200Z,100213.59
2022-10-15T20:35:02.146Z,100211.75
2022-10-15T20:37:28.561Z,100213.22
2022-10-15T20:39:54.875Z,100222.75
2022-10-15T20:42:21.455Z,100223.19
2022-10-15T20:44:47.779Z,100222.75
2022-10-15T20:47:15.974Z,100234.84
2022-10-15T20:49:46.550Z,100231.50
2022-10-15T20:52:14.266Z,100226.50
2022-10-15T20:54:40.657Z,100238.56
2022-10-15T20:57:07.362Z,100236.88
2022-10-15T20:59:33.730Z,100240.81
2022-10-15T21:02:00.194Z,100242.69
2022-10-15T21:04:26.753Z,100238.13
2022-10-15T21:06:53.127Z,100241.03
2022-10-15T21:09:19.480Z,100237.47
2022-10-15T21:11:46.788Z,100233.13
2022-10-15T21:14:13.676Z,100247.69
2022-10-15T21:16:40.789Z,100247.88
2022-10-15T21:19:07.304Z,100256.22
2022-10-15T21:21:33.751Z,100247.47
2022-10-15T21:24:00.179Z,100253.06
2022-10-15T21:26:26.736Z,100253.91
2022-10-15T21:28:59.909Z,100269.53
2022-10-15T21:31:27.046Z,100266.19
2022-10-15T21:33:55.113Z,100266.19
2022-10-15T21:36:27.046Z,100265.34
2022-10-15T21:38:54.387Z,100272.00
2022-10-15T21:41:22.478Z,100281.13
2022-10-15T21:46:16.656Z,100283.19
2022-10-15T21:48:43.564Z,100287.78
2022-10-15T21:51:15.728Z,100286.94
2022-10-15T21:53:42.268Z,100287.34
2022-10-15T21:56:09.527Z,100287.34
2022-10-15T21:58:37.864Z,100291.09
2022-10-15T22:01:14.541Z,100293.81
2022-10-15T22:03:44.899Z,100300.41
2022-10-15T22:06:12.081Z,100309.53
2022-10-15T22:08:39.180Z,100306.19
2022-10-15T22:11:23.872Z,100304.53
2022-10-15T22:13:54.005Z,100299.31
2022-10-15T22:16:21.288Z,100303.47
2022-10-15T22:18:48.127Z,100306.38
2022-10-15T22:21:20.765Z,100301.19
2022-10-15T22:23:51.547Z,100307.59
2022-10-15T22:26:19.622Z,100309.06
2022-10-15T22:28:46.778Z,100313.00
2022-10-15T22:31:16.655Z,100316.53
2022-10-15T22:33:44.563Z,100315.22
2022-10-15T22:36:17.108Z,100318.97
2022-10-15T22:38:45.833Z,100320.03
2022-10-15T22:41:13.529Z,100320.41
2022-10-15T22:43:40.350Z,100321.44
2022-10-15T22:46:07.363Z,100324.16
2022-10-15T22:48:39.876Z,100327.91
2022-10-15T22:51:08.444Z,100328.06
2022-10-15T22:53:34.941Z,100327.25
2022-10-15T22:56:11.596Z,100326.19
2022-10-15T22:58:38.201Z,100331.00
2022-10-15T23:01:25.537Z,100331.00
2022-10-15T23:03:54.965Z,100332.22
2022-10-15T23:06:22.307Z,100339.69
2022-10-15T23:08:49.465Z,100336.16
2022-10-15T23:11:21.950Z,100326.38
2022-10-15T23:13:53.499Z,100325.72
2022-10-15T23:16:23.834Z,100321.34
2022-10-15T23:18:56.486Z,100321.53
2022-10-15T23:21:40.286Z,100326.31
2022-10-15T23:24:07.367Z,100340.25
2022-10-15T23:26:34.087Z,100345.00
2022-10-15T23:29:01.843Z,100345.19
2022-10-15T23:31:30.703Z,100340.16
2022-10-15T23:33:57.849Z,100344.09
2022-10-15T23:36:25.942Z,100344.28
2022-10-15T23:38:57.910Z,100340.97
2022-10-15T23:41:25.538Z,100335.75
2022-10-15T23:43:52.515Z,100338.63
2022-10-15T23:46:19.174Z,100340.72
2022-10-15T23:48:46.333Z,100347.13
2022-10-15T23:51:25.184Z,100357.94
2022-10-15T23:53:52.370Z,100368.13
2022-10-15T23:56:19.406Z,100361.03
2022-10-15T23:58:50.738Z,100364.56
